createdAt,value
2019-03-12T00:00:56.261Z,4.10
2019-03-12T00:01:56.331Z,4.04
2019-03-12T00:02:56.478Z,4.04
2019-03-12T00:03:56.382Z,3.98
2019-03-12T00:04:56.420Z,4.01
2019-03-12T00:05:56.496Z,4.10
2019-03-12T00:06:56.691Z,4.08
2019-03-12T00:07:56.542Z,4.00
2019-03-12T00:08:56.584Z,4.08
2019-03-12T00:09:56.625Z,4.14
2019-03-12T00:10:56.665Z,4.12
2019-03-12T00:11:56.731Z,4.03
2019-03-12T00:12:56.755Z,4.04
2019-03-12T00:13:56.791Z,4.01
2019-03-12T00:14:56.828Z,3.94
2019-03-12T00:15:56.875Z,4.10
2019-03-12T00:16:57.100Z,3.96
2019-03-12T00:17:56.964Z,4.00
2019-03-12T00:18:56.993Z,4.03
2019-03-12T00:19:57.033Z,4.01
2019-03-12T00:20:57.072Z,4.04
2019-03-12T00:21:57.516Z,4.03
2019-03-12T00:22:57.157Z,3.98
2019-03-12T00:23:57.304Z,3.98
2019-03-12T00:24:57.236Z,4.12
2019-03-12T00:25:57.276Z,4.07
2019-03-12T00:26:57.341Z,4.01
2019-03-12T00:27:57.381Z,4.03
2019-03-12T00:28:57.397Z,4.00
2019-03-12T00:29:57.448Z,4.06
2019-03-12T00:30:57.571Z,3.94
2019-03-12T00:31:57.524Z,4.00
2019-03-12T00:32:57.582Z,4.07
2019-03-12T00:33:57.605Z,4.07
2019-03-12T00:34:57.652Z,4.07
2019-03-12T00:35:57.686Z,4.07
2019-03-12T00:36:57.732Z,3.97
2019-03-12T00:37:57.795Z,4.03
2019-03-12T00:38:57.827Z,4.03
2019-03-12T00:39:57.851Z,4.01
2019-03-12T00:40:57.894Z,4.08
2019-03-12T00:41:57.933Z,4.00
2019-03-12T00:42:57.974Z,4.04
2019-03-12T00:43:58.034Z,4.04
2019-03-12T00:44:58.055Z,4.15
2019-03-12T00:45:58.093Z,4.15
2019-03-12T00:46:58.142Z,4.14
2019-03-12T00:47:58.198Z,4.24
2019-03-12T00:48:58.216Z,4.22
2019-03-12T00:49:58.266Z,4.24
2019-03-12T00:50:58.298Z,4.24
2019-03-12T00:51:58.355Z,4.22
2019-03-12T00:52:58.405Z,4.22
2019-03-12T00:53:58.429Z,4.12
2019-03-12T00:54:58.479Z,4.21
2019-03-12T00:55:58.513Z,4.19
2019-03-12T00:56:58.544Z,4.14
2019-03-12T00:57:58.665Z,4.00
2019-03-12T00:58:58.627Z,4.01
2019-03-12T00:59:58.695Z,4.08
2019-03-12T01:00:58.714Z,4.08
2019-03-12T01:01:58.747Z,4.28
2019-03-12T01:02:58.808Z,4.21
2019-03-12T01:03:58.837Z,4.18
2019-03-12T01:04:58.887Z,4.26
2019-03-12T01:05:58.913Z,4.28
2019-03-12T01:06:58.957Z,4.33
2019-03-12T01:07:59.012Z,4.32
2019-03-12T01:08:59.031Z,4.37
2019-03-12T01:09:59.094Z,4.33
2019-03-12T01:10:59.140Z,4.28
2019-03-12T01:11:59.158Z,4.22
2019-03-12T01:12:59.200Z,4.25
2019-03-12T01:13:59.257Z,4.28
2019-03-12T01:14:59.285Z,4.29
2019-03-12T01:15:59.317Z,4.21
2019-03-12T01:16:59.371Z,4.15
2019-03-12T01:17:59.403Z,4.08
2019-03-12T01:18:59.461Z,4.18
2019-03-12T01:19:59.489Z,4.08
2019-03-12T01:20:59.531Z,4.14
2019-03-12T01:21:59.563Z,4.26
2019-03-12T01:22:59.638Z,4.19
2019-03-12T01:23:59.686Z,4.18
2019-03-12T01:24:59.684Z,4.16
2019-03-12T01:25:59.725Z,4.22
2019-03-12T01:26:59.780Z,4.24
2019-03-12T01:27:59.807Z,4.29
2019-03-12T01:28:59.899Z,4.06
2019-03-12T01:29:59.893Z,4.14
2019-03-12T01:30:59.938Z,4.10
2019-03-12T01:31:59.971Z,4.10
2019-03-12T01:33:00.017Z,4.15
2019-03-12T01:34:00.195Z,4.07
2019-03-12T01:35:00.115Z,4.14
2019-03-12T01:36:00.145Z,4.22
2019-03-12T01:37:00.175Z,4.15
2019-03-12T01:38:00.221Z,4.25
2019-03-12T01:39:00.289Z,4.21
2019-03-12T01:40:00.444Z,4.24
2019-03-12T01:41:00.368Z,4.19
2019-03-12T01:42:00.386Z,4.19
2019-03-12T01:43:00.425Z,4.25
2019-03-12T01:44:00.463Z,4.22
2019-03-12T01:45:00.530Z,4.22
2019-03-12T01:46:00.546Z,4.28
2019-03-12T01:47:00.603Z,4.28
2019-03-12T01:48:00.681Z,4.28
2019-03-12T01:49:00.666Z,4.18
2019-03-12T01:50:00.746Z,4.18
2019-03-12T01:51:00.747Z,4.21
2019-03-12T01:52:00.792Z,4.22
2019-03-12T01:53:00.829Z,4.22
2019-03-12T01:54:00.960Z,4.16
2019-03-12T01:55:01.012Z,4.10
2019-03-12T01:56:00.955Z,4.14
2019-03-12T01:57:00.995Z,4.08
2019-03-12T01:58:01.040Z,4.14
2019-03-12T01:59:01.092Z,4.10
2019-03-12T02:00:01.140Z,4.01
2019-03-12T02:01:01.178Z,4.00
2019-03-12T02:02:01.211Z,4.14
2019-03-12T02:03:01.244Z,4.10
2019-03-12T02:04:01.282Z,4.07
2019-03-12T02:05:01.319Z,4.07
2019-03-12T02:06:01.380Z,4.14
2019-03-12T02:07:01.424Z,4.08
2019-03-12T02:08:01.443Z,4.08
2019-03-12T02:09:01.483Z,4.19
2019-03-12T02:10:01.526Z,4.16
2019-03-12T02:11:01.583Z,4.14
2019-03-12T02:12:01.641Z,4.14
2019-03-12T02:13:01.651Z,4.16
2019-03-12T02:14:01.700Z,4.03
2019-03-12T02:15:01.735Z,4.01
2019-03-12T02:16:01.773Z,4.01
2019-03-12T02:17:01.850Z,4.00
2019-03-12T02:18:01.854Z,4.00
2019-03-12T02:19:01.898Z,4.03
2019-03-12T02:20:01.936Z,3.94
2019-03-12T02:21:01.976Z,4.18
2019-03-12T02:22:02.039Z,3.97
2019-03-12T02:23:02.056Z,4.00
2019-03-12T02:24:02.100Z,3.90
2019-03-12T02:25:02.149Z,3.97
2019-03-12T02:26:02.180Z,4.07
2019-03-12T02:27:02.239Z,3.98
2019-03-12T02:28:02.312Z,4.03
2019-03-12T02:29:02.306Z,4.04
2019-03-12T02:30:02.361Z,4.07
2019-03-12T02:31:02.387Z,4.07
2019-03-12T02:32:02.445Z,4.01
2019-03-12T02:33:02.487Z,3.97
2019-03-12T02:34:02.513Z,3.90
2019-03-12T02:35:02.554Z,3.85
2019-03-12T02:36:02.595Z,3.89
2019-03-12T02:37:02.629Z,3.94
2019-03-12T02:38:02.698Z,3.85
2019-03-12T02:39:02.713Z,3.89
2019-03-12T02:40:02.760Z,3.96
2019-03-12T02:41:02.798Z,3.80
2019-03-12T02:42:02.882Z,3.86
2019-03-12T02:43:02.905Z,3.86
2019-03-12T02:44:02.920Z,3.85
2019-03-12T02:45:02.981Z,3.79
2019-03-12T02:46:02.997Z,3.88
2019-03-12T02:47:03.040Z,3.83
2019-03-12T02:48:03.110Z,3.86
2019-03-12T02:49:03.122Z,3.89
2019-03-12T02:50:03.170Z,3.98
2019-03-12T02:51:03.205Z,4.03
2019-03-12T02:52:03.252Z,4.01
2019-03-12T02:53:03.303Z,3.94
2019-03-12T02:54:03.336Z,3.94
2019-03-12T02:55:03.386Z,4.00
2019-03-12T02:56:03.416Z,3.88
2019-03-12T02:57:03.457Z,4.03
2019-03-12T02:58:03.517Z,3.89
2019-03-12T02:59:03.534Z,4.00
2019-03-12T03:00:03.578Z,3.89
2019-03-12T03:01:03.609Z,3.92
2019-03-12T03:02:03.653Z,3.98
2019-03-12T03:03:03.726Z,3.88
2019-03-12T03:04:03.737Z,3.98
2019-03-12T03:05:03.780Z,4.06
2019-03-12T03:06:03.848Z,3.89
2019-03-12T03:07:03.856Z,3.96
2019-03-12T03:08:03.933Z,3.80
2019-03-12T03:09:03.946Z,3.89
2019-03-12T03:10:04.089Z,3.82
2019-03-12T03:11:04.026Z,3.82
2019-03-12T03:12:04.062Z,3.90
2019-03-12T03:13:04.142Z,3.89
2019-03-12T03:14:04.156Z,3.90
2019-03-12T03:15:04.186Z,3.79
2019-03-12T03:16:04.225Z,3.78
2019-03-12T03:17:04.265Z,3.75
2019-03-12T03:18:04.329Z,3.68
2019-03-12T03:19:04.350Z,3.62
2019-03-12T03:20:04.391Z,3.67
2019-03-12T03:21:04.431Z,3.68
2019-03-12T03:22:04.477Z,3.57
2019-03-12T03:23:04.563Z,3.54
2019-03-12T03:24:04.574Z,3.57
2019-03-12T03:25:04.592Z,3.60
2019-03-12T03:26:04.636Z,3.61
2019-03-12T03:27:04.684Z,3.44
2019-03-12T03:28:04.721Z,3.52
2019-03-12T03:29:04.774Z,3.50
2019-03-12T03:30:04.830Z,3.53
2019-03-12T03:31:04.921Z,3.39
2019-03-12T03:32:04.894Z,3.40
2019-03-12T03:33:04.996Z,3.33
2019-03-12T03:34:05.001Z,3.39
2019-03-12T03:35:05.010Z,3.25
2019-03-12T03:36:05.044Z,3.18
2019-03-12T03:37:05.079Z,3.05
2019-03-12T03:38:05.168Z,3.05
2019-03-12T03:39:05.183Z,3.07
2019-03-12T03:40:05.206Z,3.05
2019-03-12T03:41:05.972Z,3.00
2019-03-12T03:42:05.283Z,2.97
2019-03-12T03:43:05.324Z,2.98
2019-03-12T03:44:05.388Z,2.98
2019-03-12T03:45:05.404Z,3.05
2019-03-12T03:46:05.458Z,3.03
2019-03-12T03:47:05.486Z,3.13
2019-03-12T03:48:05.533Z,3.12
2019-03-12T03:49:05.601Z,3.16
2019-03-12T03:50:05.608Z,3.13
2019-03-12T03:51:05.648Z,3.15
2019-03-12T03:52:05.698Z,3.12
2019-03-12T03:53:05.725Z,3.10
2019-03-12T03:54:05.801Z,3.12
2019-03-12T03:55:05.830Z,3.13
2019-03-12T03:56:05.845Z,3.06
2019-03-12T03:57:05.888Z,3.12
2019-03-12T03:58:05.932Z,3.12
2019-03-12T03:59:05.974Z,3.13
2019-03-12T04:00:06.038Z,3.12
2019-03-12T04:01:06.054Z,3.16
2019-03-12T04:02:06.093Z,3.20
2019-03-12T04:03:06.132Z,3.20
2019-03-12T04:04:06.194Z,3.18
2019-03-12T04:05:06.240Z,3.24
2019-03-12T04:06:06.275Z,3.31
2019-03-12T04:07:06.296Z,3.33
2019-03-12T04:08:06.338Z,3.27
2019-03-12T04:09:06.373Z,3.30
2019-03-12T04:10:06.437Z,3.39
2019-03-12T04:11:06.453Z,3.33
2019-03-12T04:12:06.499Z,3.31
2019-03-12T04:13:06.535Z,3.39
2019-03-12T04:14:06.587Z,3.39
2019-03-12T04:15:06.631Z,3.42
2019-03-12T04:16:06.665Z,3.43
2019-03-12T04:17:06.715Z,3.36
2019-03-12T04:18:06.746Z,3.34
2019-03-12T04:19:06.778Z,3.33
2019-03-12T04:20:06.903Z,3.42
2019-03-12T04:21:06.879Z,3.36
2019-03-12T04:22:06.900Z,3.40
2019-03-12T04:23:06.942Z,3.36
2019-03-12T04:24:06.979Z,3.42
2019-03-12T04:25:07.035Z,3.40
2019-03-12T04:26:07.095Z,3.36
2019-03-12T04:27:07.112Z,3.36
2019-03-12T04:28:07.142Z,3.34
2019-03-12T04:29:07.187Z,3.39
2019-03-12T04:30:07.223Z,3.34
2019-03-12T04:31:07.292Z,3.27
2019-03-12T04:32:07.307Z,3.30
2019-03-12T04:33:07.343Z,3.33
2019-03-12T04:34:07.393Z,3.27
2019-03-12T04:35:07.427Z,3.30
2019-03-12T04:36:07.485Z,3.30
2019-03-12T04:37:07.508Z,3.34
2019-03-12T04:38:07.546Z,3.30
2019-03-12T04:39:07.589Z,3.27
2019-03-12T04:40:07.629Z,3.30
2019-03-12T04:41:07.722Z,3.30
2019-03-12T04:42:07.711Z,3.30
2019-03-12T04:43:07.756Z,3.20
2019-03-12T04:44:07.791Z,3.28
2019-03-12T04:45:07.835Z,3.36
2019-03-12T04:46:07.893Z,3.30
2019-03-12T04:47:07.911Z,3.30
2019-03-12T04:48:07.954Z,3.27
2019-03-12T04:49:08.002Z,3.21
2019-03-12T04:50:08.035Z,3.34
2019-03-12T04:51:08.099Z,3.31
2019-03-12T04:52:08.120Z,3.24
2019-03-12T04:53:08.163Z,3.25
2019-03-12T04:54:08.198Z,3.28
2019-03-12T04:55:08.243Z,3.30
2019-03-12T04:56:08.312Z,3.28
2019-03-12T04:57:08.344Z,3.24
2019-03-12T04:58:08.361Z,3.24
2019-03-12T04:59:08.487Z,3.28
2019-03-12T05:00:08.441Z,3.28
2019-03-12T05:01:08.486Z,3.25
2019-03-12T05:02:08.546Z,3.15
2019-03-12T05:03:08.668Z,3.10
2019-03-12T05:04:08.605Z,3.13
2019-03-12T05:05:08.644Z,3.12
2019-03-12T05:06:08.686Z,3.03
2019-03-12T05:07:08.756Z,3.02
2019-03-12T05:08:08.765Z,3.02
2019-03-12T05:09:08.808Z,2.97
2019-03-12T05:10:08.850Z,3.03
2019-03-12T05:11:08.888Z,3.05
2019-03-12T05:12:08.954Z,3.16
2019-03-12T05:13:08.970Z,3.15
2019-03-12T05:14:09.012Z,3.23
2019-03-12T05:15:09.051Z,3.15
2019-03-12T05:16:09.117Z,3.20
2019-03-12T05:17:09.158Z,3.18
2019-03-12T05:18:09.174Z,3.20
2019-03-12T05:19:09.213Z,3.31
2019-03-12T05:20:09.254Z,3.28
2019-03-12T05:21:09.295Z,3.33
2019-03-12T05:22:09.383Z,3.42
2019-03-12T05:23:09.383Z,3.40
2019-03-12T05:24:09.417Z,3.40
2019-03-12T05:25:09.455Z,3.40
2019-03-12T05:26:09.498Z,3.46
2019-03-12T05:27:09.567Z,3.60
2019-03-12T05:28:09.604Z,3.60
2019-03-12T05:29:09.622Z,3.60
2019-03-12T05:30:09.663Z,3.53
2019-03-12T05:31:09.702Z,3.65
2019-03-12T05:32:09.759Z,3.54
2019-03-12T05:33:09.802Z,3.60
2019-03-12T05:34:09.841Z,3.58
2019-03-12T05:35:09.871Z,3.49
2019-03-12T05:36:09.903Z,3.49
2019-03-12T05:37:09.945Z,3.34
2019-03-12T05:38:10.004Z,3.43
2019-03-12T05:39:10.048Z,3.39
2019-03-12T05:40:10.069Z,3.28
2019-03-12T05:41:12.214Z,3.27
2019-03-12T05:42:10.162Z,3.21
2019-03-12T05:43:10.208Z,3.02
2019-03-12T05:44:10.245Z,3.00
2019-03-12T05:45:10.265Z,2.98
2019-03-12T05:46:10.312Z,2.97
2019-03-12T05:47:10.351Z,2.85
2019-03-12T05:48:10.413Z,2.88
2019-03-12T05:49:10.430Z,2.77
2019-03-12T05:50:10.513Z,2.79
2019-03-12T05:51:10.509Z,2.84
2019-03-12T05:52:10.549Z,2.77
2019-03-12T05:53:10.655Z,2.79
2019-03-12T05:54:10.655Z,2.77
2019-03-12T05:55:10.685Z,2.76
2019-03-12T05:56:10.717Z,2.79
2019-03-12T05:57:10.751Z,2.74
2019-03-12T05:58:10.811Z,2.77
2019-03-12T05:59:10.848Z,2.71
2019-03-12T06:00:10.985Z,2.76
2019-03-12T06:01:10.913Z,2.71
2019-03-12T06:02:10.953Z,2.56
2019-03-12T06:03:10.993Z,2.58
2019-03-12T06:04:11.071Z,2.51
2019-03-12T06:05:11.071Z,2.58
2019-03-12T06:06:11.112Z,2.53
2019-03-12T06:07:11.155Z,2.51
2019-03-12T06:08:11.200Z,2.53
2019-03-12T06:09:11.258Z,2.45
2019-03-12T06:10:11.278Z,2.46
2019-03-12T06:11:11.314Z,2.44
2019-03-12T06:12:11.353Z,2.48
2019-03-12T06:13:11.401Z,2.52
2019-03-12T06:14:11.470Z,2.40
2019-03-12T06:15:11.473Z,2.34
2019-03-12T06:16:11.520Z,2.38
2019-03-12T06:17:11.562Z,2.37
2019-03-12T06:18:11.602Z,2.37
2019-03-12T06:19:11.656Z,2.37
2019-03-12T06:20:11.679Z,2.31
2019-03-12T06:21:11.715Z,2.40
2019-03-12T06:22:12.301Z,2.35
2019-03-12T06:23:15.038Z,2.41
2019-03-12T06:24:11.872Z,2.49
2019-03-12T06:25:11.893Z,2.51
2019-03-12T06:26:11.921Z,2.56
2019-03-12T06:27:11.952Z,2.63
2019-03-12T06:28:11.993Z,2.52
2019-03-12T06:29:12.039Z,2.56
2019-03-12T06:30:12.110Z,2.67
2019-03-12T06:31:12.112Z,2.61
2019-03-12T06:32:12.162Z,2.74
2019-03-12T06:33:12.189Z,2.67
2019-03-12T06:34:12.242Z,2.66
2019-03-12T06:35:12.296Z,2.74
2019-03-12T06:36:12.318Z,3.00
2019-03-12T06:37:12.353Z,3.02
2019-03-12T06:38:12.395Z,3.18
2019-03-12T06:39:12.436Z,3.30
2019-03-12T06:40:12.519Z,3.64
2019-03-12T06:41:12.513Z,4.03
2019-03-12T06:42:12.555Z,4.37
2019-03-12T06:43:12.603Z,4.44
2019-03-12T06:44:12.641Z,4.86
2019-03-12T06:45:13.690Z,5.07
2019-03-12T06:46:12.717Z,5.27
2019-03-12T06:47:12.778Z,5.35
2019-03-12T06:48:12.902Z,5.17
2019-03-12T06:49:12.837Z,5.35
2019-03-12T06:50:12.913Z,5.53
2019-03-12T06:51:12.928Z,5.59
2019-03-12T06:52:12.958Z,5.64
2019-03-12T06:53:12.998Z,5.49
2019-03-12T06:54:13.050Z,5.53
2019-03-12T06:55:13.170Z,5.66
2019-03-12T06:56:13.147Z,5.75
2019-03-12T06:57:13.164Z,5.75
2019-03-12T06:58:13.203Z,5.73
2019-03-12T06:59:13.257Z,5.63
2019-03-12T07:00:13.286Z,5.56
2019-03-12T07:01:13.350Z,5.35
2019-03-12T07:02:13.378Z,5.32
2019-03-12T07:03:13.415Z,5.32
2019-03-12T07:04:13.458Z,5.25
2019-03-12T07:05:13.496Z,5.23
2019-03-12T07:06:13.554Z,5.02
2019-03-12T07:07:16.813Z,4.84
2019-03-12T07:08:13.618Z,4.70
2019-03-12T07:09:13.660Z,4.75
2019-03-12T07:10:13.706Z,4.62
2019-03-12T07:11:13.778Z,4.69
2019-03-12T07:12:13.788Z,4.72
2019-03-12T07:13:13.824Z,4.70
2019-03-12T07:14:13.871Z,4.79
2019-03-12T07:15:13.904Z,4.99
2019-03-12T07:16:13.972Z,5.19
2019-03-12T07:17:14.006Z,5.28
2019-03-12T07:18:14.040Z,5.22
2019-03-12T07:19:14.074Z,5.25
2019-03-12T07:20:14.127Z,5.22
2019-03-12T07:21:14.165Z,5.19
2019-03-12T07:22:14.219Z,5.20
2019-03-12T07:23:14.240Z,5.20
2019-03-12T07:24:14.292Z,5.34
2019-03-12T07:25:14.324Z,5.38
2019-03-12T07:26:14.381Z,5.63
2019-03-12T07:27:14.475Z,5.73
2019-03-12T07:28:14.452Z,5.66
2019-03-12T07:29:14.487Z,5.59
2019-03-12T07:30:14.535Z,5.56
2019-03-12T07:31:14.586Z,5.50
2019-03-12T07:32:14.631Z,5.59
2019-03-12T07:33:14.674Z,5.53
2019-03-12T07:34:18.171Z,5.60
2019-03-12T07:35:14.737Z,5.70
2019-03-12T07:36:14.826Z,5.81
2019-03-12T07:37:14.828Z,5.83
2019-03-12T07:38:14.894Z,5.92
2019-03-12T07:39:14.915Z,6.01
2019-03-12T07:40:14.948Z,6.48
2019-03-12T07:41:26.434Z,7.23
2019-03-12T07:42:15.076Z,8.30
2019-03-12T07:43:15.103Z,8.86
2019-03-12T07:44:15.122Z,9.71
2019-03-12T07:45:15.239Z,10.26
2019-03-12T07:46:15.206Z,10.60
2019-03-12T07:47:15.250Z,10.65
2019-03-12T07:48:15.429Z,10.65
2019-03-12T07:49:15.336Z,10.07
2019-03-12T07:50:15.381Z,10.00
2019-03-12T07:51:15.424Z,9.58
2019-03-12T07:52:15.473Z,10.03
2019-03-12T07:53:15.551Z,10.21
2019-03-12T07:54:15.560Z,10.04
2019-03-12T07:55:15.606Z,10.76
2019-03-12T07:56:15.647Z,10.91
2019-03-12T07:57:15.709Z,11.56
2019-03-12T07:58:15.771Z,11.86
2019-03-12T07:59:15.785Z,11.36
2019-03-12T08:00:15.829Z,10.86
2019-03-12T08:01:15.877Z,10.66
2019-03-12T08:02:15.920Z,10.80
2019-03-12T08:03:16.003Z,10.81
2019-03-12T08:04:16.048Z,11.17
2019-03-12T08:05:16.087Z,10.63
2019-03-12T08:06:16.116Z,10.99
2019-03-12T08:07:16.155Z,10.78
2019-03-12T08:08:16.205Z,10.80
2019-03-12T08:09:16.272Z,10.36
2019-03-12T08:10:16.298Z,10.80
2019-03-12T08:11:16.351Z,10.94
2019-03-12T08:12:16.387Z,11.20
2019-03-12T08:13:16.439Z,11.11
2019-03-12T08:14:16.522Z,11.54
2019-03-12T08:15:22.941Z,12.01
2019-03-12T08:16:16.573Z,11.29
2019-03-12T08:17:16.618Z,11.53
2019-03-12T08:18:16.687Z,11.46
2019-03-12T08:19:16.741Z,11.54
2019-03-12T08:20:16.774Z,12.12
2019-03-12T08:21:22.386Z,11.44
2019-03-12T08:22:16.943Z,10.89
2019-03-12T08:23:16.902Z,11.09
2019-03-12T08:24:16.977Z,10.74
2019-03-12T08:25:17.008Z,10.63
2019-03-12T08:26:17.047Z,10.66
2019-03-12T08:27:17.095Z,10.36
2019-03-12T08:28:17.152Z,10.28
2019-03-12T08:29:17.496Z,10.09
2019-03-12T08:30:17.235Z,9.66
2019-03-12T08:31:17.283Z,9.64
2019-03-12T08:32:17.331Z,9.85
2019-03-12T08:33:17.399Z,9.73
2019-03-12T08:34:17.447Z,9.94
2019-03-12T08:35:17.490Z,9.79
2019-03-12T08:36:17.522Z,9.78
2019-03-12T08:37:17.574Z,9.79
2019-03-12T08:38:17.620Z,10.18
2019-03-12T08:39:17.695Z,10.55
2019-03-12T08:40:17.721Z,10.59
2019-03-12T08:41:17.758Z,10.42
2019-03-12T08:42:17.804Z,10.89
2019-03-12T08:43:17.872Z,11.59
2019-03-12T08:44:17.928Z,12.29
2019-03-12T08:45:17.970Z,12.85
2019-03-12T08:46:18.386Z,12.59
2019-03-12T08:47:18.049Z,12.63
2019-03-12T08:48:18.105Z,12.81
2019-03-12T08:49:18.152Z,11.50
2019-03-12T08:50:18.225Z,10.66
2019-03-12T08:51:18.246Z,10.95
2019-03-12T08:52:18.286Z,11.17
2019-03-12T08:53:18.331Z,11.01
2019-03-12T08:54:21.308Z,10.78
2019-03-12T08:55:18.467Z,10.19
2019-03-12T08:56:18.494Z,10.33
2019-03-12T08:57:18.527Z,9.93
2019-03-12T08:58:18.588Z,9.58
2019-03-12T08:59:18.644Z,9.56
2019-03-12T09:00:18.697Z,9.78
2019-03-12T09:01:18.847Z,10.07
2019-03-12T09:02:18.770Z,10.43
2019-03-12T09:03:18.829Z,10.60
2019-03-12T09:04:18.864Z,10.36
2019-03-12T09:05:18.961Z,10.58
2019-03-12T09:06:18.970Z,10.63
2019-03-12T09:07:19.026Z,10.95
2019-03-12T09:08:19.115Z,10.81
2019-03-12T09:09:19.111Z,10.52
2019-03-12T09:10:19.273Z,10.18
2019-03-12T09:11:19.204Z,10.36
2019-03-12T09:12:19.268Z,10.55
2019-03-12T09:13:19.306Z,10.68
2019-03-12T09:14:19.360Z,10.39
2019-03-12T09:15:19.460Z,9.82
2019-03-12T09:16:19.449Z,10.25
2019-03-12T09:17:19.617Z,9.81
2019-03-12T09:18:19.543Z,10.12
2019-03-12T09:19:19.603Z,10.24
2019-03-12T09:20:19.666Z,10.03
2019-03-12T09:21:19.711Z,10.07
2019-03-12T09:22:19.741Z,10.32
2019-03-12T09:23:19.792Z,10.47
2019-03-12T09:24:19.962Z,10.62
2019-03-12T09:25:19.884Z,10.68
2019-03-12T09:26:19.968Z,10.04
2019-03-12T09:27:19.992Z,9.91
2019-03-12T09:28:20.037Z,10.15
2019-03-12T09:29:20.085Z,10.36
2019-03-12T09:30:20.152Z,10.28
2019-03-12T09:31:20.230Z,10.28
2019-03-12T09:32:20.223Z,10.21
2019-03-12T09:33:20.287Z,10.51
2019-03-12T09:34:20.325Z,10.15
2019-03-12T09:35:20.373Z,10.37
2019-03-12T09:36:20.440Z,11.09
2019-03-12T09:37:20.468Z,10.73
2019-03-12T09:38:20.520Z,10.88
2019-03-12T09:39:20.567Z,11.10
2019-03-12T09:40:20.619Z,11.25
2019-03-12T09:41:20.683Z,11.53
2019-03-12T09:42:20.749Z,11.47
2019-03-12T09:43:20.791Z,11.25
2019-03-12T09:44:20.880Z,10.80
2019-03-12T09:45:20.869Z,11.02
2019-03-12T09:46:20.913Z,10.62
2019-03-12T09:47:20.996Z,11.01
2019-03-12T09:48:21.024Z,10.89
2019-03-12T09:49:21.065Z,10.81
2019-03-12T09:50:21.152Z,10.77
2019-03-12T09:51:21.162Z,10.28
2019-03-12T09:52:21.237Z,10.22
2019-03-12T09:53:21.276Z,9.91
2019-03-12T09:54:21.320Z,9.86
2019-03-12T09:55:21.360Z,9.30
2019-03-12T09:56:21.408Z,9.18
2019-03-12T09:57:21.482Z,9.01
2019-03-12T09:58:21.512Z,9.09
2019-03-12T09:59:21.556Z,9.53
2019-03-12T10:00:21.600Z,9.81
2019-03-12T10:01:21.649Z,9.68
2019-03-12T10:02:21.741Z,9.39
2019-03-12T10:03:21.753Z,9.79
2019-03-12T10:04:21.899Z,9.38
2019-03-12T10:05:21.846Z,9.76
2019-03-12T10:06:21.909Z,9.85
2019-03-12T10:07:21.985Z,10.06
2019-03-12T10:08:22.001Z,9.83
2019-03-12T10:09:22.050Z,9.53
2019-03-12T10:10:22.093Z,9.85
2019-03-12T10:11:22.137Z,9.97
2019-03-12T10:12:22.329Z,9.96
2019-03-12T10:13:22.264Z,9.79
2019-03-12T10:14:22.290Z,9.91
2019-03-12T10:15:22.343Z,9.79
2019-03-12T10:16:22.387Z,9.56
2019-03-12T10:17:22.437Z,9.60
2019-03-12T10:18:22.518Z,9.82
2019-03-12T10:19:22.627Z,9.78
2019-03-12T10:20:22.585Z,9.83
2019-03-12T10:21:22.638Z,9.57
2019-03-12T10:22:22.680Z,9.93
2019-03-12T10:23:22.761Z,9.96
2019-03-12T10:24:22.781Z,10.15
2019-03-12T10:25:22.822Z,10.30
2019-03-12T10:26:22.938Z,9.97
2019-03-12T10:27:22.938Z,10.28
2019-03-12T10:28:23.004Z,10.60
2019-03-12T10:29:23.681Z,10.59
2019-03-12T10:30:23.176Z,10.25
2019-03-12T10:31:23.119Z,10.09
2019-03-12T10:32:23.171Z,9.67
2019-03-12T10:33:23.239Z,9.71
2019-03-12T10:34:29.658Z,9.52
2019-03-12T10:35:23.324Z,9.93
2019-03-12T10:36:23.462Z,10.32
2019-03-12T10:37:23.475Z,10.71
2019-03-12T10:38:23.467Z,10.81
2019-03-12T10:39:23.532Z,10.78
2019-03-12T10:40:23.567Z,10.71
2019-03-12T10:41:23.602Z,10.59
2019-03-12T10:42:23.656Z,10.60
2019-03-12T10:43:23.704Z,10.84
2019-03-12T10:44:23.825Z,10.94
2019-03-12T10:45:23.806Z,10.63
2019-03-12T10:46:23.852Z,10.44
2019-03-12T10:47:23.905Z,10.51
2019-03-12T10:48:23.962Z,10.36
2019-03-12T10:49:36.686Z,9.99
2019-03-12T10:50:24.121Z,10.06
2019-03-12T10:51:24.102Z,10.42
2019-03-12T10:52:24.151Z,10.14
2019-03-12T10:53:24.194Z,10.37
2019-03-12T10:54:24.269Z,10.15
2019-03-12T10:55:24.296Z,10.30
2019-03-12T10:56:24.344Z,10.28
2019-03-12T10:57:24.393Z,10.25
2019-03-12T10:58:24.442Z,10.22
2019-03-12T10:59:24.544Z,10.14
2019-03-12T11:00:24.543Z,10.55
2019-03-12T11:01:24.586Z,10.58
2019-03-12T11:02:24.647Z,10.56
2019-03-12T11:03:24.687Z,10.65
2019-03-12T11:04:24.756Z,10.83
2019-03-12T11:05:24.812Z,11.01
2019-03-12T11:06:24.842Z,11.50
2019-03-12T11:07:24.883Z,11.54
2019-03-12T11:08:24.930Z,11.31
2019-03-12T11:09:24.987Z,10.89
2019-03-12T11:10:25.160Z,10.66
2019-03-12T11:11:25.087Z,10.56
2019-03-12T11:12:25.136Z,10.73
2019-03-12T11:13:25.174Z,10.83
2019-03-12T11:14:25.236Z,11.02
2019-03-12T11:15:25.304Z,10.59
2019-03-12T11:16:25.327Z,10.52
2019-03-12T11:17:25.378Z,10.17
2019-03-12T11:18:25.423Z,10.09
2019-03-12T11:19:25.477Z,10.26
2019-03-12T11:20:26.218Z,10.46
2019-03-12T11:21:25.585Z,10.42
2019-03-12T11:22:25.622Z,10.80
2019-03-12T11:23:25.672Z,10.86
2019-03-12T11:24:25.729Z,10.51
2019-03-12T11:25:27.627Z,10.58
2019-03-12T11:26:25.865Z,10.62
2019-03-12T11:27:25.866Z,10.58
2019-03-12T11:28:26.817Z,10.70
2019-03-12T11:29:25.967Z,10.86
2019-03-12T11:30:26.025Z,10.81
2019-03-12T11:31:26.083Z,10.96
2019-03-12T11:32:26.115Z,10.99
2019-03-12T11:33:26.170Z,10.98
2019-03-12T11:34:26.209Z,10.96
2019-03-12T11:35:26.267Z,11.17
2019-03-12T11:36:26.345Z,11.47
2019-03-12T11:37:26.364Z,11.38
2019-03-12T11:38:26.414Z,11.35
2019-03-12T11:39:26.469Z,11.01
2019-03-12T11:40:31.635Z,10.78
2019-03-12T11:41:26.577Z,10.99
2019-03-12T11:42:26.604Z,10.94
2019-03-12T11:43:26.656Z,11.09
2019-03-12T11:44:26.713Z,11.01
2019-03-12T11:45:36.088Z,11.41
2019-03-12T11:46:26.838Z,11.89
2019-03-12T11:47:26.919Z,12.31
2019-03-12T11:48:26.917Z,12.05
2019-03-12T11:49:26.955Z,12.45
2019-03-12T11:50:27.017Z,12.41
2019-03-12T11:51:27.073Z,12.49
2019-03-12T11:52:27.121Z,12.45
2019-03-12T11:53:27.159Z,12.27
2019-03-12T11:54:27.220Z,11.97
2019-03-12T11:55:27.309Z,11.68
2019-03-12T11:56:27.340Z,11.36
2019-03-12T11:57:27.354Z,11.34
2019-03-12T11:58:27.407Z,11.24
2019-03-12T11:59:27.498Z,11.20
2019-03-12T12:00:27.885Z,11.13
2019-03-12T12:01:27.577Z,10.86
2019-03-12T12:02:27.625Z,11.07
2019-03-12T12:03:27.657Z,11.16
2019-03-12T12:04:27.714Z,11.14
2019-03-12T12:05:27.753Z,11.31
2019-03-12T12:06:27.966Z,11.49
2019-03-12T12:07:27.985Z,11.74
2019-03-12T12:08:27.924Z,11.72
2019-03-12T12:09:27.989Z,12.13
2019-03-12T12:10:28.015Z,12.89
2019-03-12T12:11:28.063Z,12.95
2019-03-12T12:12:28.153Z,12.66
2019-03-12T12:13:28.250Z,12.67
2019-03-12T12:14:28.210Z,12.15
2019-03-12T12:15:28.268Z,12.04
2019-03-12T12:16:28.314Z,11.78
2019-03-12T12:17:28.379Z,11.75
2019-03-12T12:18:28.432Z,11.94
2019-03-12T12:19:28.461Z,12.34
2019-03-12T12:20:30.300Z,12.67
2019-03-12T12:21:28.567Z,12.57
2019-03-12T12:22:28.655Z,12.42
2019-03-12T12:23:28.669Z,12.15
2019-03-12T12:24:28.729Z,12.31
2019-03-12T12:25:28.777Z,11.97
2019-03-12T12:26:28.826Z,12.21
2019-03-12T12:27:28.916Z,12.42
2019-03-12T12:28:28.955Z,12.39
2019-03-12T12:29:28.986Z,12.39
2019-03-12T12:30:29.048Z,12.51
2019-03-12T12:31:29.101Z,12.51
2019-03-12T12:32:29.142Z,12.56
2019-03-12T12:33:29.227Z,12.20
2019-03-12T12:34:29.234Z,12.20
2019-03-12T12:35:29.283Z,12.26
2019-03-12T12:36:29.353Z,12.51
2019-03-12T12:37:29.394Z,12.26
2019-03-12T12:38:29.465Z,11.90
2019-03-12T12:39:29.494Z,11.59
2019-03-12T12:40:29.555Z,11.61
2019-03-12T12:41:29.600Z,11.61
2019-03-12T12:42:29.641Z,11.90
2019-03-12T12:43:29.738Z,12.06
2019-03-12T12:44:29.775Z,11.97
2019-03-12T12:45:29.826Z,11.78
2019-03-12T12:46:29.853Z,11.67
2019-03-12T12:47:29.900Z,11.62
2019-03-12T12:48:29.968Z,11.68
2019-03-12T12:49:30.003Z,11.62
2019-03-12T12:50:30.068Z,11.59
2019-03-12T12:51:30.100Z,11.86
2019-03-12T12:52:30.164Z,11.87
2019-03-12T12:53:30.217Z,11.89
2019-03-12T12:54:30.268Z,11.61
2019-03-12T12:55:30.301Z,11.49
2019-03-12T12:56:30.354Z,11.54
2019-03-12T12:57:30.400Z,11.64
2019-03-12T12:58:30.474Z,11.39
2019-03-12T12:59:30.535Z,11.49
2019-03-12T13:00:30.552Z,11.31
2019-03-12T13:01:30.635Z,11.32
2019-03-12T13:02:30.652Z,10.88
2019-03-12T13:03:30.735Z,10.83
2019-03-12T13:04:30.764Z,10.63
2019-03-12T13:05:30.794Z,10.56
2019-03-12T13:06:30.851Z,10.70
2019-03-12T13:07:30.903Z,10.66
2019-03-12T13:08:30.963Z,10.71
2019-03-12T13:09:31.013Z,10.74
2019-03-12T13:10:31.045Z,11.01